sensor_id;sensor_type;location;lat;lon;timestamp;pressure;altitude;pressure_sealevel;temperature;humidity
26178;BME280;13924;47.670;10.310;2022-12-13T00:08:23;92320;;;-9.6;100.0
26178;BME280;13924;47.670;10.310;2022-12-13T00:19:23;92320;;;-9.6;100.0
26178;BME280;13924;47.670;10.310;2022-12-13T00:30:29;92300;;;-10.2;100.0
26178;BME280;13924;47.670;10.310;2022-12-13T00:36:06;92300;;;-10.2;100.0
26178;BME280;13924;47.670;10.310;2022-12-13T00:41:14;92300;;;-10.3;100.0
26178;BME280;13924;47.670;10.310;2022-12-13T00:46:31;92300;;;-10.3;100.0
26178;BME280;13924;47.670;10.310;2022-12-13T00:51:50;92280;;;-10.1;100.0
26178;BME280;13924;47.670;10.310;2022-12-13T00:58:22;92270;;;-10.5;100.0
26178;BME280;13924;47.670;10.310;2022-12-13T01:14:42;92270;;;-10.5;100.0
26178;BME280;13924;47.670;10.310;2022-12-13T01:25:26;92260;;;-10.5;100.0
26178;BME280;13924;47.670;10.310;2022-12-13T01:37:26;92260;;;-10.5;100.0
26178;BME280;13924;47.670;10.310;2022-12-13T01:47:59;92240;;;-9.8;100.0
26178;BME280;13924;47.670;10.310;2022-12-13T01:53:16;92240;;;-9.8;100.0
26178;BME280;13924;47.670;10.310;2022-12-13T01:58:30;92240;;;-9.8;100.0
26178;BME280;13924;47.670;10.310;2022-12-13T02:03:44;92220;;;-10.6;100.0
26178;BME280;13924;47.670;10.310;2022-12-13T02:14:55;92220;;;-10.6;100.0
26178;BME280;13924;47.670;10.310;2022-12-13T02:20:27;92220;;;-10.6;100.0
26178;BME280;13924;47.670;10.310;2022-12-13T02:25:40;92220;;;-10.4;100.0
26178;BME280;13924;47.670;10.310;2022-12-13T02:36:17;92200;;;-10.1;100.0
26178;BME280;13924;47.670;10.310;2022-12-13T02:41:26;92200;;;-10.1;100.0
26178;BME280;13924;47.670;10.310;2022-12-13T02:46:49;92210;;;-11.4;100.0
26178;BME280;13924;47.670;10.310;2022-12-13T02:57:29;92210;;;-11.4;100.0
26178;BME280;13924;47.670;10.310;2022-12-13T03:04:07;92210;;;-11.4;100.0
26178;BME280;13924;47.670;10.310;2022-12-13T03:09:16;92200;;;-11.1;100.0
26178;BME280;13924;47.670;10.310;2022-12-13T03:14:23;92200;;;-11.1;100.0
26178;BME280;13924;47.670;10.310;2022-12-13T03:35:50;92170;;;-11.3;100.0
26178;BME280;13924;47.670;10.310;2022-12-13T03:41:20;92170;;;-12.0;100.0
26178;BME280;13924;47.670;10.310;2022-12-13T03:57:11;92160;;;-11.2;100.0
26178;BME280;13924;47.670;10.310;2022-12-13T04:02:22;92140;;;-11.0;100.0
26178;BME280;13924;47.670;10.310;2022-12-13T04:07:41;92140;;;-11.0;100.0
26178;BME280;13924;47.670;10.310;2022-12-13T04:18:21;92140;;;-11.0;100.0
26178;BME280;13924;47.670;10.310;2022-12-13T04:39:49;92120;;;-11.4;100.0
26178;BME280;13924;47.670;10.310;2022-12-13T04:50:34;92120;;;-11.7;100.0
26178;BME280;13924;47.670;10.310;2022-12-13T04:55:44;92140;;;-12.4;100.0
26178;BME280;13924;47.670;10.310;2022-12-13T05:00:57;92140;;;-12.4;100.0
26178;BME280;13924;47.670;10.310;2022-12-13T05:06:38;92140;;;-12.4;100.0
26178;BME280;13924;47.670;10.310;2022-12-13T05:11:55;92110;;;-12.1;100.0
26178;BME280;13924;47.670;10.310;2022-12-13T05:17:11;92110;;;-12.1;100.0
26178;BME280;13924;47.670;10.310;2022-12-13T05:23:54;92110;;;-12.1;100.0
26178;BME280;13924;47.670;10.310;2022-12-13T05:29:08;92110;;;-12.1;100.0
26178;BME280;13924;47.670;10.310;2022-12-13T05:39:33;92110;;;-12.0;100.0
26178;BME280;13924;47.670;10.310;2022-12-13T05:45:13;92110;;;-12.0;100.0
26178;BME280;13924;47.670;10.310;2022-12-13T05:50:21;92130;;;-12.9;100.0
26178;BME280;13924;47.670;10.310;2022-12-13T05:55:41;92130;;;-12.9;100.0
26178;BME280;13924;47.670;10.310;2022-12-13T06:01:03;92130;;;-12.9;100.0
26178;BME280;13924;47.670;10.310;2022-12-13T06:06:11;92130;;;-12.9;100.0
26178;BME280;13924;47.670;10.310;2022-12-13T06:18:16;92100;;;-11.9;100.0
26178;BME280;13924;47.670;10.310;2022-12-13T06:23:43;92100;;;-11.9;100.0
26178;BME280;13924;47.670;10.310;2022-12-13T06:34:25;92100;;;-11.9;100.0
26178;BME280;13924;47.670;10.310;2022-12-13T06:41:10;92090;;;-11.6;100.0
26178;BME280;13924;47.670;10.310;2022-12-13T06:49:13;92090;;;-11.6;100.0
26178;BME280;13924;47.670;10.310;2022-12-13T06:54:31;92100;;;-12.8;100.0
26178;BME280;13924;47.670;10.310;2022-12-13T07:00:08;92100;;;-12.8;100.0
26178;BME280;13924;47.670;10.310;2022-12-13T07:06:39;92110;;;-12.8;100.0
26178;BME280;13924;47.670;10.310;2022-12-13T07:11:47;92110;;;-12.8;100.0
26178;BME280;13924;47.670;10.310;2022-12-13T07:23:33;92110;;;-12.0;100.0
26178;BME280;13924;47.670;10.310;2022-12-13T07:28:46;92110;;;-12.0;100.0
26178;BME280;13924;47.670;10.310;2022-12-13T07:35:20;92110;;;-12.0;100.0
26178;BME280;13924;47.670;10.310;2022-12-13T07:40:26;92110;;;-12.0;100.0
26178;BME280;13924;47.670;10.310;2022-12-13T07:46:57;92110;;;-11.1;100.0
26178;BME280;13924;47.670;10.310;2022-12-13T07:52:11;92110;;;-11.1;100.0
26178;BME280;13924;47.670;10.310;2022-12-13T08:02:43;92110;;;-10.3;100.0
26178;BME280;13924;47.670;10.310;2022-12-13T08:08:05;92110;;;-10.3;100.0
26178;BME280;13924;47.670;10.310;2022-12-13T08:13:17;92110;;;-10.3;100.0
26178;BME280;13924;47.670;10.310;2022-12-13T08:25:11;92130;;;-10.7;100.0
26178;BME280;13924;47.670;10.310;2022-12-13T08:30:17;92130;;;-10.7;100.0
26178;BME280;13924;47.670;10.310;2022-12-13T08:35:35;92120;;;-10.1;100.0
26178;BME280;13924;47.670;10.310;2022-12-13T08:40:49;92120;;;-10.1;100.0
26178;BME280;13924;47.670;10.310;2022-12-13T08:51:22;92130;;;-9.0;100.0
26178;BME280;13924;47.670;10.310;2022-12-13T08:56:51;92130;;;-9.0;100.0
26178;BME280;13924;47.670;10.310;2022-12-13T09:02:18;92130;;;-9.0;100.0
26178;BME280;13924;47.670;10.310;2022-12-13T09:07:32;92130;;;-9.0;100.0
26178;BME280;13924;47.670;10.310;2022-12-13T09:12:58;92130;;;-9.0;100.0
26178;BME280;13924;47.670;10.310;2022-12-13T09:18:11;92130;;;-9.0;100.0
26178;BME280;13924;47.670;10.310;2022-12-13T09:24:47;92160;;;-8.5;100.0
26178;BME280;13924;47.670;10.310;2022-12-13T09:29:53;92140;;;-8.2;100.0
26178;BME280;13924;47.670;10.310;2022-12-13T09:41:06;92140;;;-8.2;100.0
26178;BME280;13924;47.670;10.310;2022-12-13T09:46:37;92140;;;-8.2;100.0
26178;BME280;13924;47.670;10.310;2022-12-13T10:02:42;92110;;;-7.0;100.0
26178;BME280;13924;47.670;10.310;2022-12-13T10:13:18;92110;;;-7.0;100.0
26178;BME280;13924;47.670;10.310;2022-12-13T10:29:07;92100;;;-5.9;100.0
26178;BME280;13924;47.670;10.310;2022-12-13T10:34:26;92100;;;-5.9;100.0
26178;BME280;13924;47.670;10.310;2022-12-13T10:39:38;92080;;;-5.4;100.0
26178;BME280;13924;47.670;10.310;2022-12-13T10:55:33;92070;;;-4.6;100.0
26178;BME280;13924;47.670;10.310;2022-12-13T11:11:29;92070;;;-3.0;100.0
26178;BME280;13924;47.670;10.310;2022-12-13T11:16:40;92050;;;-2.5;100.0
26178;BME280;13924;47.670;10.310;2022-12-13T11:38:14;92040;;;-2.5;100.0
26178;BME280;13924;47.670;10.310;2022-12-13T11:43:25;92040;;;-2.5;100.0
26178;BME280;13924;47.670;10.310;2022-12-13T11:48:43;92040;;;-2.5;100.0
26178;BME280;13924;47.670;10.310;2022-12-13T11:53:53;92030;;;-1.0;100.0
26178;BME280;13924;47.670;10.310;2022-12-13T11:59:06;92030;;;-1.5;96.6
26178;BME280;13924;47.670;10.310;2022-12-13T12:04:17;92040;;;-2.7;100.0
26178;BME280;13924;47.670;10.310;2022-12-13T12:14:45;92040;;;-3.8;100.0
26178;BME280;13924;47.670;10.310;2022-12-13T12:19:53;92030;;;-3.8;100.0
26178;BME280;13924;47.670;10.310;2022-12-13T12:30:39;92030;;;-3.8;100.0
26178;BME280;13924;47.670;10.310;2022-12-13T12:41:20;92050;;;-4.6;100.0
26178;BME280;13924;47.670;10.310;2022-12-13T13:02:38;92030;;;-4.6;100.0
26178;BME280;13924;47.670;10.310;2022-12-13T13:07:57;92030;;;-4.6;100.0
26178;BME280;13924;47.670;10.310;2022-12-13T13:13:32;92030;;;-4.6;100.0
26178;BME280;13924;47.670;10.310;2022-12-13T13:18:44;92030;;;-4.6;100.0
26178;BME280;13924;47.670;10.310;2022-12-13T13:23:34;92050;;;-4.5;100.0
26178;BME280;13924;47.670;10.310;2022-12-13T13:28:50;92050;;;-4.5;100.0
26178;BME280;13924;47.670;10.310;2022-12-13T13:34:21;92050;;;-4.5;100.0
26178;BME280;13924;47.670;10.310;2022-12-13T13:39:53;92050;;;-4.5;100.0
26178;BME280;13924;47.670;10.310;2022-12-13T13:44:52;92060;;;-4.5;100.0
26178;BME280;13924;47.670;10.310;2022-12-13T13:57:26;92060;;;-4.5;100.0
26178;BME280;13924;47.670;10.310;2022-12-13T14:00:43;92060;;;-4.5;100.0
26178;BME280;13924;47.670;10.310;2022-12-13T14:06:00;92050;;;-4.6;100.0
26178;BME280;13924;47.670;10.310;2022-12-13T14:11:08;92050;;;-4.6;100.0
26178;BME280;13924;47.670;10.310;2022-12-13T14:16:38;92070;;;-4.5;100.0
26178;BME280;13924;47.670;10.310;2022-12-13T14:21:50;92070;;;-4.5;100.0
26178;BME280;13924;47.670;10.310;2022-12-13T14:26:46;92070;;;-4.5;100.0
26178;BME280;13924;47.670;10.310;2022-12-13T14:31:49;92050;;;-4.7;100.0
26178;BME280;13924;47.670;10.310;2022-12-13T14:37:15;92050;;;-4.7;100.0
26178;BME280;13924;47.670;10.310;2022-12-13T14:42:22;92070;;;-4.8;100.0
26178;BME280;13924;47.670;10.310;2022-12-13T14:47:32;92070;;;-4.8;100.0
26178;BME280;13924;47.670;10.310;2022-12-13T14:52:42;92050;;;-4.8;100.0
26178;BME280;13924;47.670;10.310;2022-12-13T15:03:25;92070;;;-4.9;100.0
26178;BME280;13924;47.670;10.310;2022-12-13T15:14:05;92070;;;-4.9;100.0
26178;BME280;13924;47.670;10.310;2022-12-13T15:19:21;92070;;;-4.9;100.0
26178;BME280;13924;47.670;10.310;2022-12-13T15:24:34;92070;;;-5.0;100.0
26178;BME280;13924;47.670;10.310;2022-12-13T15:29:47;92070;;;-5.0;100.0
26178;BME280;13924;47.670;10.310;2022-12-13T15:35:14;92070;;;-5.0;100.0
26178;BME280;13924;47.670;10.310;2022-12-13T15:40:13;92090;;;-5.0;100.0
26178;BME280;13924;47.670;10.310;2022-12-13T15:45:26;92090;;;-5.0;100.0
26178;BME280;13924;47.670;10.310;2022-12-13T15:50:43;92090;;;-5.0;100.0
26178;BME280;13924;47.670;10.310;2022-12-13T15:55:55;92090;;;-5.0;100.0
26178;BME280;13924;47.670;10.310;2022-12-13T16:01:23;92080;;;-5.1;100.0
26178;BME280;13924;47.670;10.310;2022-12-13T16:06:24;92080;;;-5.1;100.0
26178;BME280;13924;47.670;10.310;2022-12-13T16:11:47;92080;;;-5.1;100.0
26178;BME280;13924;47.670;10.310;2022-12-13T16:16:53;92080;;;-5.1;100.0
26178;BME280;13924;47.670;10.310;2022-12-13T16:22:03;92090;;;-5.1;100.0
26178;BME280;13924;47.670;10.310;2022-12-13T16:27:15;92070;;;-5.2;100.0
26178;BME280;13924;47.670;10.310;2022-12-13T16:32:31;92070;;;-5.2;100.0
26178;BME280;13924;47.670;10.310;2022-12-13T16:43:16;92070;;;-5.2;100.0
26178;BME280;13924;47.670;10.310;2022-12-13T16:48:24;92080;;;-5.2;100.0
26178;BME280;13924;47.670;10.310;2022-12-13T16:53:37;92080;;;-5.2;100.0
26178;BME280;13924;47.670;10.310;2022-12-13T16:58:54;92080;;;-5.2;100.0
26178;BME280;13924;47.670;10.310;2022-12-13T17:04:09;92070;;;-5.1;100.0
26178;BME280;13924;47.670;10.310;2022-12-13T17:20:20;92070;;;-5.1;100.0
26178;BME280;13924;47.670;10.310;2022-12-13T17:25:30;92060;;;-5.1;100.0
26178;BME280;13924;47.670;10.310;2022-12-13T17:30:45;92060;;;-5.1;100.0
26178;BME280;13924;47.670;10.310;2022-12-13T17:36:02;92060;;;-5.1;100.0
26178;BME280;13924;47.670;10.310;2022-12-13T17:46:43;92050;;;-5.2;100.0
26178;BME280;13924;47.670;10.310;2022-12-13T17:51:56;92050;;;-5.2;100.0
26178;BME280;13924;47.670;10.310;2022-12-13T17:57:10;92020;;;-5.2;100.0
26178;BME280;13924;47.670;10.310;2022-12-13T18:07:52;92040;;;-5.2;100.0
26178;BME280;13924;47.670;10.310;2022-12-13T18:13:08;92040;;;-5.2;100.0
26178;BME280;13924;47.670;10.310;2022-12-13T18:18:20;92060;;;-5.1;100.0
26178;BME280;13924;47.670;10.310;2022-12-13T18:34:37;92060;;;-5.1;100.0
26178;BME280;13924;47.670;10.310;2022-12-13T18:43:58;92060;;;-5.1;100.0
26178;BME280;13924;47.670;10.310;2022-12-13T18:54:20;92080;;;-4.9;100.0
26178;BME280;13924;47.670;10.310;2022-12-13T18:59:34;92080;;;-4.9;100.0
26178;BME280;13924;47.670;10.310;2022-12-13T19:04:46;92070;;;-4.8;100.0
26178;BME280;13924;47.670;10.310;2022-12-13T19:15:28;92070;;;-4.8;100.0
26178;BME280;13924;47.670;10.310;2022-12-13T19:20:47;92040;;;-4.8;100.0
26178;BME280;13924;47.670;10.310;2022-12-13T19:25:56;92040;;;-4.8;100.0
26178;BME280;13924;47.670;10.310;2022-12-13T19:31:14;92040;;;-4.8;100.0
26178;BME280;13924;47.670;10.310;2022-12-13T19:36:26;92050;;;-4.8;100.0
26178;BME280;13924;47.670;10.310;2022-12-13T19:41:43;92050;;;-4.8;100.0
26178;BME280;13924;47.670;10.310;2022-12-13T19:46:58;92050;;;-4.8;100.0
26178;BME280;13924;47.670;10.310;2022-12-13T19:57:41;92070;;;-4.8;100.0
26178;BME280;13924;47.670;10.310;2022-12-13T20:13:34;92100;;;-4.9;100.0
26178;BME280;13924;47.670;10.310;2022-12-13T20:18:53;92100;;;-4.9;100.0
26178;BME280;13924;47.670;10.310;2022-12-13T20:24:07;92100;;;-4.9;100.0
26178;BME280;13924;47.670;10.310;2022-12-13T20:29:20;92100;;;-4.9;100.0
26178;BME280;13924;47.670;10.310;2022-12-13T20:34:31;92120;;;-4.8;100.0
26178;BME280;13924;47.670;10.310;2022-12-13T20:39:47;92120;;;-4.8;100.0
26178;BME280;13924;47.670;10.310;2022-12-13T20:44:59;92130;;;-4.8;100.0
26178;BME280;13924;47.670;10.310;2022-12-13T20:50:11;92130;;;-4.8;100.0
26178;BME280;13924;47.670;10.310;2022-12-13T21:06:23;92180;;;-4.8;100.0
26178;BME280;13924;47.670;10.310;2022-12-13T21:11:37;92180;;;-4.8;100.0
26178;BME280;13924;47.670;10.310;2022-12-13T21:16:53;92180;;;-4.8;100.0
26178;BME280;13924;47.670;10.310;2022-12-13T21:22:02;92200;;;-4.8;100.0
26178;BME280;13924;47.670;10.310;2022-12-13T21:27:22;92200;;;-4.8;100.0
26178;BME280;13924;47.670;10.310;2022-12-13T21:32:36;92200;;;-4.8;100.0
26178;BME280;13924;47.670;10.310;2022-12-13T21:37:48;92240;;;-4.8;100.0
26178;BME280;13924;47.670;10.310;2022-12-13T21:48:30;92260;;;-4.7;100.0
26178;BME280;13924;47.670;10.310;2022-12-13T21:53:38;92280;;;-4.6;100.0
26178;BME280;13924;47.670;10.310;2022-12-13T22:04:13;92290;;;-4.5;100.0
26178;BME280;13924;47.670;10.310;2022-12-13T22:09:25;92290;;;-4.5;100.0
26178;BME280;13924;47.670;10.310;2022-12-13T22:31:04;92310;;;-4.5;100.0
26178;BME280;13924;47.670;10.310;2022-12-13T22:52:42;92310;;;-4.5;100.0
26178;BME280;13924;47.670;10.310;2022-12-13T22:57:53;92310;;;-4.5;100.0
26178;BME280;13924;47.670;10.310;2022-12-13T23:03:24;92310;;;-4.5;100.0
26178;BME280;13924;47.670;10.310;2022-12-13T23:13:58;92310;;;-4.5;100.0
26178;BME280;13924;47.670;10.310;2022-12-13T23:19:43;92330;;;-4.4;100.0
26178;BME280;13924;47.670;10.310;2022-12-13T23:24:56;92330;;;-4.4;100.0
26178;BME280;13924;47.670;10.310;2022-12-13T23:47:53;92350;;;-4.4;100.0
26178;BME280;13924;47.670;10.310;2022-12-13T23:53:01;92370;;;-4.2;100.0
26178;BME280;13924;47.670;10.310;2022-12-13T23:58:15;92390;;;-4.2;100.0
